Pleasant Valley, NY

11:45 AM EST on February 21, 2017 (GMT -0500)
Moosey Station | | Change Station

Elev 250 ft 41.77 °N, 73.80 °W | Updated 4 seconds ago

Partly Cloudy
Partly Cloudy
41.5 °F
Feels Like 42 °F
N
0.9
Wind Variable Wind from SW
Gusts 7.0 mph

Today
High -- | Low -- °F
--% Chance of Precip.
Yesterday
High -- | Low -- °F
Precip. -- in
Pressure 30.34 in
Visibility 10.0 miles
Clouds Clear
Windchill 42 °F
Dew Point 14 °F
Humidity 32%
Rainfall 0.00 in
Snow Depth Not available.
6:41 AM 5:36 PM
Waning Crescent, 24% visible
METAR KPOU 211553Z AUTO 00000KT 10SM CLR 03/M08 A3034 RMK AO2 SLP273 T00281083
Pressure 30.34 in
Visibility 10.0 miles
Clouds Clear
Windchill 42 °F
Dew Point 14 °F
Humidity 32%
Rainfall 0.00 in
Snow Depth Not available.
6:41 AM 5:36 PM
Waning Crescent, 24% visible
METAR KPOU 211553Z AUTO 00000KT 10SM CLR 03/M08 A3034 RMK AO2 SLP273 T00281083

Get Your Daily Forecast Email!

Thanks for signing up!

Be on the lookout for a verification email in your inbox.

You'll start receiving the daily forecast at 8 AM.

×

10-Day Weather Forecast

Almanac

Astronomy

Feb. 21, 2017 Rise Set
Actual Time
Civil Twilight
Nautical Twilight
Astronomical Twilight
Moon
Length of Visible Light
Length of Day
Tomorrow will be .
, % of the Moon is Illuminated

Today's Extremes

State Highs State Lows

Community

WunderPhotos

Upload Photos

1,962,540 photos uploaded!

WunderBlog® & News

Nearby

Air Quality

  Air Quality AQ Index Pollutant
Not available.

Snow Depth

Station Depth Elevation

Earthquake Activity

City Distance Mag. Time & Date
Minimum magnitude displayed is 2.5.

Coastal Water Temperatures

Place Temperature

Stations

Nearby Weather Stations

Station Location Temp. Windchill Dew Point Humidity Wind Precip. Elev Updated Type
                   

Watches & Warnings

There are currently no watches in effect.